createdAt,value
2018-05-01T00:00:32.512Z,12.70
2018-05-01T00:02:59.988Z,12.60
2018-05-01T00:05:27.445Z,12.50
2018-05-01T00:07:54.889Z,12.40
2018-05-01T00:10:22.314Z,12.40
2018-05-01T00:12:49.789Z,12.30
2018-05-01T00:15:17.230Z,12.30
2018-05-01T00:17:44.715Z,12.30
2018-05-01T00:20:12.187Z,12.20
2018-05-01T00:22:39.644Z,12.20
2018-05-01T00:25:07.363Z,12.20
2018-05-01T00:27:34.826Z,12.20
2018-05-01T00:30:02.257Z,12.20
2018-05-01T00:32:29.718Z,12.10
2018-05-01T00:34:57.182Z,12.20
2018-05-01T00:37:24.641Z,12.20
2018-05-01T00:39:52.075Z,12.10
2018-05-01T00:59:37.354Z,11.90
2018-05-01T01:02:04.803Z,11.80
2018-05-01T01:04:32.261Z,11.70
2018-05-01T01:06:59.724Z,11.80
2018-05-01T01:09:27.187Z,11.70
2018-05-01T01:11:54.633Z,11.80
2018-05-01T01:14:22.110Z,11.70
2018-05-01T01:16:49.556Z,11.60
2018-05-01T01:19:17.010Z,11.60
2018-05-01T01:21:44.456Z,11.50
2018-05-01T01:24:11.902Z,11.40
2018-05-01T01:26:39.373Z,11.30
2018-05-01T01:29:06.831Z,11.30
2018-05-01T01:31:34.290Z,11.40
2018-05-01T01:34:01.753Z,11.30
2018-05-01T01:36:28.705Z,11.20
2018-05-01T01:38:55.675Z,11.20
2018-05-01T01:41:22.625Z,11.20
2018-05-01T01:43:49.593Z,11.10
2018-05-01T01:46:16.543Z,11.20
2018-05-01T01:48:43.528Z,11.20
2018-05-01T01:51:10.480Z,11.20
2018-05-01T01:53:37.447Z,11.20
2018-05-01T01:56:04.425Z,11.10
2018-05-01T01:58:31.388Z,11.20
2018-05-01T02:00:59.117Z,11.00
2018-05-01T02:03:26.056Z,10.90
2018-05-01T02:05:53.021Z,10.90
2018-05-01T02:08:19.980Z,10.90
2018-05-01T02:10:46.946Z,10.90
2018-05-01T02:13:13.903Z,10.90
2018-05-01T02:15:40.874Z,10.90
2018-05-01T02:18:08.611Z,10.80
2018-05-01T02:20:35.596Z,10.80
2018-05-01T02:23:02.569Z,10.80
2018-05-01T02:25:29.527Z,10.80
2018-05-01T02:27:56.483Z,10.70
2018-05-01T02:30:23.448Z,10.70
2018-05-01T02:32:50.416Z,10.70
2018-05-01T02:35:17.395Z,10.60
2018-05-01T02:37:45.105Z,10.50
2018-05-01T02:40:12.057Z,10.50
2018-05-01T02:42:39.017Z,10.50
2018-05-01T02:45:05.977Z,10.50
2018-05-01T02:47:32.937Z,10.40
2018-05-01T02:49:59.901Z,10.30
2018-05-01T02:52:26.869Z,10.30
2018-05-01T02:54:54.590Z,10.30
2018-05-01T02:57:21.538Z,10.20
2018-05-01T02:59:48.515Z,10.20
2018-05-01T03:02:15.469Z,10.20
2018-05-01T03:04:42.430Z,10.20
2018-05-01T03:07:09.377Z,10.20
2018-05-01T03:09:36.354Z,10.10
2018-05-01T03:12:03.320Z,10.10
2018-05-01T03:14:30.297Z,10.10
2018-05-01T03:16:57.271Z,10.00
2018-05-01T03:19:24.223Z,9.90
2018-05-01T03:21:51.190Z,9.80
2018-05-01T03:24:18.406Z,9.90
2018-05-01T03:26:45.370Z,9.90
2018-05-01T03:29:12.335Z,9.70
2018-05-01T03:31:39.293Z,9.80
2018-05-01T03:34:06.249Z,9.80
2018-05-01T03:36:33.978Z,9.70
2018-05-01T03:39:00.956Z,9.70
2018-05-01T03:41:27.888Z,9.70
2018-05-01T03:43:54.862Z,9.60
2018-05-01T03:46:21.873Z,9.50
2018-05-01T03:48:48.851Z,9.50
2018-05-01T03:51:15.814Z,9.50
2018-05-01T03:53:42.772Z,9.30
2018-05-01T03:56:09.776Z,9.30
2018-05-01T03:58:36.697Z,9.40
2018-05-01T04:01:03.645Z,9.30
2018-05-01T04:03:30.589Z,9.20
2018-05-01T04:05:57.547Z,9.20
2018-05-01T04:08:24.504Z,9.20
2018-05-01T04:10:51.481Z,9.10
2018-05-01T04:13:18.425Z,9.10
2018-05-01T04:15:45.390Z,9.00
2018-05-01T04:18:12.396Z,9.00
2018-05-01T04:20:39.500Z,9.00
2018-05-01T04:23:06.451Z,8.90
2018-05-01T04:25:33.410Z,8.90
2018-05-01T04:28:00.368Z,8.90
2018-05-01T04:30:27.340Z,8.90
2018-05-01T04:32:55.065Z,8.90
2018-05-01T04:35:22.016Z,8.80
2018-05-01T04:37:48.968Z,8.80
2018-05-01T04:40:15.926Z,8.80
2018-05-01T04:42:42.886Z,8.80
2018-05-01T04:45:09.871Z,8.70
2018-05-01T04:47:36.817Z,8.70
2018-05-01T04:50:03.769Z,8.70
2018-05-01T04:52:31.485Z,8.60
2018-05-01T04:54:58.441Z,8.60
2018-05-01T04:57:25.410Z,8.50
2018-05-01T04:59:52.356Z,8.60
2018-05-01T05:02:19.309Z,8.60
2018-05-01T05:04:46.244Z,8.60
2018-05-01T05:07:13.200Z,8.60
2018-05-01T05:09:40.157Z,8.60
2018-05-01T05:12:07.110Z,8.50
2018-05-01T05:14:34.067Z,8.60
2018-05-01T05:17:01.041Z,8.40
2018-05-01T05:19:27.990Z,8.60
2018-05-01T05:21:54.950Z,8.50
2018-05-01T05:24:22.672Z,8.60
2018-05-01T05:26:49.658Z,8.60
2018-05-01T05:29:16.615Z,8.60
2018-05-01T05:31:43.564Z,8.60
2018-05-01T05:34:10.503Z,8.60
2018-05-01T05:36:37.488Z,8.70
2018-05-01T05:39:04.429Z,8.70
2018-05-01T05:41:32.414Z,8.50
2018-05-01T05:43:59.360Z,8.40
2018-05-01T05:46:27.067Z,8.80
2018-05-01T05:48:54.060Z,8.80
2018-05-01T05:51:20.999Z,8.80
2018-05-01T05:53:47.956Z,9.00
2018-05-01T05:56:14.922Z,9.00
2018-05-01T05:58:42.648Z,8.80
2018-05-01T06:01:09.598Z,8.70
2018-05-01T06:03:36.535Z,8.90
2018-05-01T06:06:03.501Z,9.00
2018-05-01T06:08:30.442Z,9.10
2018-05-01T06:10:57.423Z,9.00
2018-05-01T06:13:24.459Z,9.00
2018-05-01T06:15:51.387Z,9.20
2018-05-01T06:18:18.373Z,9.20
2018-05-01T06:20:45.325Z,9.20
2018-05-01T06:23:13.103Z,9.20
2018-05-01T06:25:40.040Z,9.20
2018-05-01T06:28:07.029Z,9.20
2018-05-01T06:30:34.745Z,9.10
2018-05-01T06:33:01.710Z,9.10
2018-05-01T06:35:28.645Z,9.10
2018-05-01T06:37:55.597Z,9.20
2018-05-01T06:40:22.554Z,9.10
2018-05-01T06:42:49.519Z,9.20
2018-05-01T06:45:16.479Z,9.20
2018-05-01T06:47:43.457Z,9.10
2018-05-01T06:50:11.185Z,9.20
2018-05-01T06:52:38.243Z,9.20
2018-05-01T06:55:05.224Z,9.20
2018-05-01T06:57:32.962Z,9.30
2018-05-01T06:59:59.908Z,9.30
2018-05-01T07:02:26.901Z,9.10
2018-05-01T07:04:54.659Z,9.10
2018-05-01T07:07:22.382Z,9.00
2018-05-01T07:09:49.344Z,9.00
2018-05-01T07:12:16.316Z,9.10
2018-05-01T07:14:43.280Z,9.10
2018-05-01T07:17:10.998Z,9.20
2018-05-01T07:19:37.949Z,9.20
2018-05-01T07:22:04.916Z,9.20
2018-05-01T07:24:31.861Z,9.30
2018-05-01T07:26:58.812Z,9.30
2018-05-01T07:29:25.756Z,9.40
2018-05-01T07:31:52.708Z,9.40
2018-05-01T07:34:19.668Z,9.50
2018-05-01T07:36:46.641Z,9.70
2018-05-01T07:39:13.605Z,9.80
2018-05-01T07:41:40.571Z,9.90
2018-05-01T07:44:07.513Z,9.90
2018-05-01T07:46:35.229Z,9.80
2018-05-01T07:49:02.279Z,9.80
2018-05-01T07:51:29.163Z,10.00
2018-05-01T07:53:56.120Z,10.00
2018-05-01T07:56:23.075Z,9.90
2018-05-01T07:58:50.060Z,9.90
2018-05-01T08:01:17.001Z,9.90
2018-05-01T08:03:43.972Z,10.10
2018-05-01T08:06:10.933Z,10.30
2018-05-01T08:08:37.998Z,10.20
2018-05-01T08:11:04.966Z,10.20
2018-05-01T08:13:31.933Z,10.40
2018-05-01T08:15:59.668Z,10.50
2018-05-01T08:18:26.659Z,10.50
2018-05-01T08:20:54.382Z,10.70
2018-05-01T08:23:21.342Z,10.70
2018-05-01T08:25:48.300Z,10.70
2018-05-01T08:28:15.270Z,10.60
2018-05-01T08:30:42.210Z,10.50
2018-05-01T08:33:09.212Z,10.40
2018-05-01T08:35:36.294Z,10.70
2018-05-01T08:38:04.068Z,11.00
2018-05-01T08:40:31.066Z,10.90
2018-05-01T08:42:58.787Z,11.10
2018-05-01T08:45:26.386Z,11.10
2018-05-01T08:47:54.139Z,10.80
2018-05-01T08:50:21.095Z,10.80
2018-05-01T08:52:48.076Z,11.00
2018-05-01T08:55:15.815Z,11.20
2018-05-01T08:57:42.780Z,11.20
2018-05-01T09:00:10.526Z,11.20
2018-05-01T09:02:37.508Z,11.10
2018-05-01T09:05:05.241Z,11.40
2018-05-01T09:07:32.208Z,11.40
2018-05-01T09:09:59.179Z,11.20
2018-05-01T09:12:26.898Z,11.20
2018-05-01T09:14:53.885Z,11.10
2018-05-01T09:17:20.923Z,10.90
2018-05-01T09:19:48.600Z,10.90
2018-05-01T09:22:15.555Z,10.90
2018-05-01T09:24:42.503Z,10.80
2018-05-01T09:27:09.473Z,11.10
2018-05-01T09:29:37.220Z,10.60
2018-05-01T09:32:04.172Z,10.60
2018-05-01T09:34:31.168Z,10.60
2018-05-01T09:36:58.132Z,10.80
2018-05-01T09:39:25.116Z,11.10
2018-05-01T09:41:52.062Z,11.50
2018-05-01T09:44:19.009Z,11.70
2018-05-01T09:46:45.957Z,11.30
2018-05-01T09:49:12.916Z,11.30
2018-05-01T09:51:39.853Z,11.10
2018-05-01T09:54:07.305Z,10.90
2018-05-01T09:56:34.767Z,11.50
2018-05-01T09:59:02.221Z,11.60
2018-05-01T10:01:29.673Z,11.60
2018-05-01T10:03:57.117Z,11.50
2018-05-01T10:06:25.329Z,11.40
2018-05-01T10:08:52.788Z,11.40
2018-05-01T10:11:20.240Z,11.40
2018-05-01T10:13:47.704Z,11.50
2018-05-01T10:16:15.169Z,11.20
2018-05-01T10:18:42.729Z,11.00
2018-05-01T10:21:10.180Z,11.20
2018-05-01T10:23:37.638Z,11.30
2018-05-01T10:26:05.866Z,11.70
2018-05-01T10:28:33.367Z,11.70
2018-05-01T10:31:00.785Z,11.40
2018-05-01T10:33:28.258Z,11.40
2018-05-01T10:35:55.701Z,11.50
2018-05-01T10:38:23.196Z,11.80
2018-05-01T10:40:51.633Z,11.80
2018-05-01T10:43:19.087Z,12.50
2018-05-01T10:45:46.529Z,12.90
2018-05-01T10:48:14.738Z,12.90
2018-05-01T10:50:42.196Z,12.90
2018-05-01T10:53:09.624Z,12.60
2018-05-01T10:55:37.851Z,12.00
2018-05-01T10:58:05.301Z,12.00
2018-05-01T11:00:32.752Z,12.70
2018-05-01T11:03:00.204Z,13.30
2018-05-01T11:05:27.763Z,13.20
2018-05-01T11:07:55.976Z,12.70
2018-05-01T11:10:23.424Z,12.70
2018-05-01T11:12:50.893Z,12.40
2018-05-01T11:15:18.339Z,12.70
2018-05-01T11:17:45.817Z,12.80
2018-05-01T11:20:13.280Z,12.60
2018-05-01T11:22:40.724Z,13.50
2018-05-01T11:25:08.181Z,13.50
2018-05-01T11:27:36.385Z,12.60
2018-05-01T11:30:03.835Z,12.60
2018-05-01T11:32:31.274Z,13.40
2018-05-01T11:34:59.490Z,13.50
2018-05-01T11:37:26.939Z,13.50
2018-05-01T11:39:54.396Z,14.30
2018-05-01T11:42:21.847Z,14.40
2018-05-01T11:44:50.068Z,14.10
2018-05-01T11:47:17.499Z,14.10
2018-05-01T11:49:45.021Z,14.10
2018-05-01T11:52:12.429Z,14.00
2018-05-01T11:54:39.896Z,14.30
2018-05-01T11:57:07.355Z,14.40
2018-05-01T11:59:34.828Z,14.30
2018-05-01T12:02:02.290Z,14.40
2018-05-01T12:04:29.815Z,14.60
2018-05-01T12:06:57.204Z,15.00
2018-05-01T12:09:24.653Z,14.50
2018-05-01T12:11:52.883Z,14.40
2018-05-01T12:14:20.330Z,14.40
2018-05-01T12:16:47.779Z,15.30
2018-05-01T12:19:15.215Z,15.10
2018-05-01T12:21:43.454Z,14.60
2018-05-01T12:24:10.919Z,14.60
2018-05-01T12:26:38.371Z,15.20
2018-05-01T12:29:05.824Z,14.70
2018-05-01T12:31:34.028Z,15.40
2018-05-01T12:34:01.479Z,15.40
2018-05-01T12:36:28.976Z,15.60
2018-05-01T12:38:56.398Z,14.70
2018-05-01T12:41:23.857Z,15.50
2018-05-01T12:43:51.294Z,16.00
2018-05-01T12:46:18.738Z,16.20
2018-05-01T12:48:46.970Z,16.50
2018-05-01T12:51:14.423Z,16.40
2018-05-01T12:53:41.904Z,16.50
2018-05-01T12:56:09.329Z,16.50
2018-05-01T12:58:36.773Z,15.70
2018-05-01T13:01:04.227Z,15.10
2018-05-01T13:03:32.462Z,15.00
2018-05-01T13:05:59.939Z,15.00
2018-05-01T13:08:27.371Z,15.20
2018-05-01T13:10:54.826Z,15.20
2018-05-01T13:13:23.049Z,15.70
2018-05-01T13:15:50.504Z,15.70
2018-05-01T13:18:17.941Z,15.30
2018-05-01T13:20:45.404Z,14.70
2018-05-01T13:23:12.852Z,14.90
2018-05-01T13:25:40.312Z,15.00
2018-05-01T13:28:07.797Z,15.50
2018-05-01T13:30:35.279Z,15.70
2018-05-01T13:33:02.723Z,15.20
2018-05-01T13:35:30.186Z,14.60
2018-05-01T13:37:57.683Z,14.90
2018-05-01T13:40:25.120Z,15.50
2018-05-01T13:42:52.569Z,15.90
2018-05-01T13:45:20.164Z,15.40
2018-05-01T13:47:47.619Z,15.20
2018-05-01T13:50:15.068Z,15.10
2018-05-01T13:52:42.591Z,14.30
2018-05-01T13:55:10.026Z,15.10
2018-05-01T13:57:38.279Z,15.20
2018-05-01T14:00:05.724Z,15.10
2018-05-01T14:02:33.178Z,15.40
2018-05-01T14:05:00.629Z,16.30
2018-05-01T14:07:28.104Z,16.40
2018-05-01T14:09:55.628Z,16.10
2018-05-01T14:12:23.068Z,15.90
2018-05-01T14:14:50.817Z,15.40
2018-05-01T14:17:18.322Z,16.20
2018-05-01T14:19:46.696Z,17.30
2018-05-01T14:22:14.209Z,17.30
2018-05-01T14:24:41.660Z,17.60
2018-05-01T14:27:09.184Z,17.40
2018-05-01T14:29:36.891Z,17.60
2018-05-01T14:32:04.384Z,18.00
2018-05-01T14:34:31.841Z,18.30
2018-05-01T14:36:59.300Z,16.80
2018-05-01T14:39:26.741Z,15.70
2018-05-01T14:41:54.201Z,15.30
2018-05-01T14:44:21.647Z,16.00
2018-05-01T14:46:49.095Z,17.10
2018-05-01T14:49:17.330Z,16.90
2018-05-01T14:51:44.792Z,16.90
2018-05-01T14:54:12.488Z,16.80
2018-05-01T14:56:39.987Z,17.60
2018-05-01T14:59:07.451Z,17.40
2018-05-01T15:01:35.041Z,17.90
2018-05-01T15:04:03.119Z,18.00
2018-05-01T15:06:30.572Z,18.00
2018-05-01T15:08:58.048Z,18.40
2018-05-01T15:11:25.483Z,17.40
2018-05-01T15:13:52.938Z,16.60
2018-05-01T15:16:20.364Z,17.30
2018-05-01T15:18:47.816Z,17.30
2018-05-01T15:21:15.303Z,17.90
2018-05-01T15:23:43.538Z,18.00
2018-05-01T15:26:11.802Z,17.80
2018-05-01T15:28:39.304Z,17.70
2018-05-01T15:31:07.647Z,16.00
2018-05-01T15:33:35.116Z,16.00
2018-05-01T15:36:02.569Z,15.90
2018-05-01T15:38:30.024Z,17.40
2018-05-01T15:40:57.455Z,18.30
2018-05-01T15:43:25.684Z,18.00
2018-05-01T15:45:53.125Z,18.00
2018-05-01T15:48:20.563Z,17.70
2018-05-01T15:50:48.773Z,17.80
2018-05-01T15:53:16.998Z,16.60
2018-05-01T15:55:44.566Z,16.60
2018-05-01T15:58:12.015Z,16.70
2018-05-01T16:00:39.581Z,17.00
2018-05-01T16:03:07.036Z,16.70
2018-05-01T16:05:35.890Z,17.50
2018-05-01T16:08:03.435Z,16.50
2018-05-01T16:10:31.817Z,16.40
2018-05-01T16:13:06.188Z,16.50
2018-05-01T16:15:35.399Z,16.40
2018-05-01T16:18:02.872Z,16.60
2018-05-01T16:20:34.152Z,17.00
2018-05-01T16:23:01.661Z,16.90
2018-05-01T16:25:29.874Z,17.10
2018-05-01T16:27:57.428Z,17.10
2018-05-01T16:30:24.888Z,17.10
2018-05-01T16:32:52.474Z,16.80
2018-05-01T16:35:19.918Z,16.90
2018-05-01T16:37:47.411Z,17.10
2018-05-01T16:40:14.980Z,17.30
2018-05-01T16:42:42.335Z,17.00
2018-05-01T16:45:10.572Z,16.70
2018-05-01T16:47:38.027Z,16.70
2018-05-01T16:50:05.480Z,16.50
2018-05-01T16:52:32.929Z,16.70
2018-05-01T16:55:00.406Z,15.50
2018-05-01T16:57:27.874Z,15.20
2018-05-01T16:59:55.340Z,15.70
2018-05-01T17:02:22.792Z,15.80
2018-05-01T17:04:50.236Z,15.80
2018-05-01T17:07:17.689Z,16.20
2018-05-01T17:09:45.911Z,15.20
2018-05-01T17:12:13.338Z,15.20
2018-05-01T17:14:40.796Z,15.20
2018-05-01T17:17:09.022Z,15.40
2018-05-01T17:19:36.464Z,15.40
2018-05-01T17:22:03.914Z,15.90
2018-05-01T17:24:31.373Z,16.40
2018-05-01T17:26:58.812Z,15.80
2018-05-01T17:29:27.027Z,16.40
2018-05-01T17:31:54.470Z,16.40
2018-05-01T17:34:22.694Z,16.20
2018-05-01T17:36:50.151Z,16.20
2018-05-01T17:39:18.397Z,15.70
2018-05-01T17:41:46.606Z,15.70
2018-05-01T17:44:14.073Z,15.80
2018-05-01T17:46:41.552Z,15.40
2018-05-01T17:49:08.988Z,15.20
2018-05-01T17:51:36.517Z,15.20
2018-05-01T17:54:04.737Z,15.20
2018-05-01T17:56:32.181Z,15.20
2018-05-01T17:58:59.639Z,15.20
2018-05-01T18:01:27.086Z,15.10
2018-05-01T18:03:55.311Z,14.90
2018-05-01T18:06:22.766Z,14.80
2018-05-01T18:08:51.002Z,15.10
2018-05-01T18:11:18.425Z,15.10
2018-05-01T18:13:45.874Z,15.10
2018-05-01T18:16:13.312Z,14.70
2018-05-01T18:18:40.763Z,14.20
2018-05-01T18:21:08.210Z,14.30
2018-05-01T18:23:36.418Z,14.20
2018-05-01T18:26:03.886Z,14.20
2018-05-01T18:28:33.245Z,14.60
2018-05-01T18:31:00.702Z,14.30
2018-05-01T18:33:28.152Z,14.20
2018-05-01T18:35:56.577Z,14.10
2018-05-01T18:38:24.012Z,14.00
2018-05-01T18:40:51.497Z,14.00
2018-05-01T18:43:20.885Z,13.90
2018-05-01T18:45:48.363Z,13.90
2018-05-01T18:48:16.585Z,13.70
2018-05-01T18:50:44.068Z,13.70
2018-05-01T18:53:11.492Z,13.50
2018-05-01T18:55:40.885Z,13.50
2018-05-01T18:58:08.332Z,13.20
2018-05-01T19:00:36.583Z,13.10
2018-05-01T19:03:04.026Z,13.10
2018-05-01T19:05:31.475Z,13.00
2018-05-01T19:07:58.936Z,13.00
2018-05-01T19:10:26.424Z,13.10
2018-05-01T19:12:53.828Z,12.90
2018-05-01T19:15:22.041Z,12.70
2018-05-01T19:17:49.500Z,12.70
2018-05-01T19:20:17.036Z,12.70
2018-05-01T19:22:45.251Z,12.70
2018-05-01T19:25:12.710Z,12.70
2018-05-01T19:27:40.149Z,12.90
2018-05-01T19:30:07.609Z,12.90
2018-05-01T19:32:35.047Z,12.90
2018-05-01T19:35:02.494Z,13.00
2018-05-01T19:37:29.932Z,13.00
2018-05-01T19:39:57.430Z,13.00
2018-05-01T19:42:24.864Z,12.80
2018-05-01T19:44:52.336Z,12.70
2018-05-01T19:47:19.788Z,12.80
2018-05-01T19:49:47.231Z,12.70
2018-05-01T19:52:14.683Z,12.60
2018-05-01T19:54:42.120Z,12.60
2018-05-01T19:57:10.337Z,12.60
2018-05-01T19:59:37.777Z,12.60
2018-05-01T20:02:05.221Z,12.50
2018-05-01T20:04:33.424Z,12.20
2018-05-01T20:07:00.890Z,12.20
2018-05-01T20:09:29.252Z,12.10
2018-05-01T20:11:57.463Z,11.70
2018-05-01T20:14:24.939Z,11.70
2018-05-01T20:16:52.376Z,11.60
2018-05-01T20:19:19.821Z,11.70
2018-05-01T20:21:47.271Z,11.50
2018-05-01T20:24:15.485Z,11.40
2018-05-01T20:26:43.758Z,11.40
2018-05-01T20:29:11.204Z,11.90
2018-05-01T20:31:39.484Z,12.00
2018-05-01T20:34:07.680Z,11.60
2018-05-01T20:36:35.134Z,11.60
2018-05-01T20:39:02.630Z,11.30
2018-05-01T20:41:30.092Z,11.40
2018-05-01T20:43:57.548Z,11.40
2018-05-01T20:46:25.015Z,11.60
2018-05-01T20:48:53.448Z,11.50
2018-05-01T20:51:21.661Z,11.60
2018-05-01T20:53:49.107Z,11.60
2018-05-01T20:56:16.571Z,11.50
2018-05-01T20:58:44.019Z,11.40
2018-05-01T21:01:12.268Z,11.20
2018-05-01T21:03:39.719Z,11.20
2018-05-01T21:06:07.183Z,11.30
2018-05-01T21:08:34.635Z,11.50
2018-05-01T21:11:02.084Z,11.60
2018-05-01T21:13:29.535Z,11.80
2018-05-01T21:15:56.981Z,12.00
2018-05-01T21:18:24.434Z,11.90
2018-05-01T21:20:52.640Z,11.50
2018-05-01T21:23:20.089Z,11.50
2018-05-01T21:25:47.537Z,11.40
2018-05-01T21:28:15.753Z,11.40
2018-05-01T21:30:43.192Z,11.40
2018-05-01T21:33:10.640Z,11.50
2018-05-01T21:35:38.840Z,11.50
2018-05-01T21:38:06.284Z,11.50
2018-05-01T21:40:34.488Z,11.30
2018-05-01T21:43:01.947Z,11.30
2018-05-01T21:45:30.483Z,10.90
2018-05-01T21:47:58.016Z,10.90
2018-05-01T21:50:25.537Z,11.10
2018-05-01T21:52:53.782Z,10.70
2018-05-01T21:55:21.297Z,10.70
2018-05-01T21:57:48.736Z,10.70
2018-05-01T22:00:16.943Z,10.80
2018-05-01T22:02:44.388Z,10.70
2018-05-01T22:05:12.619Z,10.40
2018-05-01T22:07:40.059Z,10.30
2018-05-01T22:10:07.516Z,10.30
2018-05-01T22:12:35.704Z,10.20
2018-05-01T22:15:03.161Z,10.10
2018-05-01T22:17:30.612Z,10.30
2018-05-01T22:19:58.044Z,10.30
2018-05-01T22:22:25.513Z,10.20
2018-05-01T22:24:53.708Z,10.10
2018-05-01T22:27:21.162Z,10.10
2018-05-01T22:29:49.366Z,10.30
2018-05-01T22:32:16.816Z,10.30
2018-05-01T22:34:44.297Z,10.30
2018-05-01T22:37:11.736Z,10.20
2018-05-01T22:39:39.188Z,10.20
2018-05-01T22:42:07.411Z,10.40
2018-05-01T22:44:34.852Z,10.40
2018-05-01T22:47:02.304Z,10.50
2018-05-01T22:49:29.753Z,10.50
2018-05-01T22:51:57.959Z,10.30
2018-05-01T22:54:25.426Z,10.20
2018-05-01T22:56:52.844Z,10.30
2018-05-01T22:59:21.070Z,9.70
2018-05-01T23:01:48.526Z,9.70
2018-05-01T23:04:15.965Z,9.50
2018-05-01T23:06:44.168Z,9.50
2018-05-01T23:09:11.606Z,9.50
2018-05-01T23:11:39.821Z,9.40
2018-05-01T23:14:07.241Z,9.40
2018-05-01T23:16:35.442Z,9.20
2018-05-01T23:19:02.884Z,9.20
2018-05-01T23:21:31.134Z,9.30
2018-05-01T23:23:58.582Z,9.20
2018-05-01T23:26:26.015Z,9.30
2018-05-01T23:28:53.456Z,9.30
2018-05-01T23:31:21.685Z,9.20
2018-05-01T23:33:49.119Z,9.20
2018-05-01T23:36:16.571Z,9.30
2018-05-01T23:38:44.039Z,9.20
2018-05-01T23:41:11.479Z,9.20
2018-05-01T23:43:38.987Z,9.10
2018-05-01T23:46:06.416Z,9.10
2018-05-01T23:48:33.865Z,8.90
2018-05-01T23:51:01.322Z,8.90
2018-05-01T23:53:28.762Z,8.90
2018-05-01T23:55:56.199Z,9.00
2018-05-01T23:58:23.636Z,8.90
